sensor_id;sensor_type;location;lat;lon;timestamp;pressure;altitude;pressure_sealevel;temperature;humidity
46954;BME280;32707;43.886;12.874;2022-08-21T00:01:05;100973.72;;;22.02;68.69
46954;BME280;32707;43.886;12.874;2022-08-21T00:03:32;100970.88;;;22.02;68.66
46954;BME280;32707;43.886;12.874;2022-08-21T00:05:57;100977.81;;;22.05;68.72
46954;BME280;32707;43.886;12.874;2022-08-21T00:08:23;100964.38;;;22.05;68.72
46954;BME280;32707;43.886;12.874;2022-08-21T00:10:49;100971.28;;;22.04;68.72
46954;BME280;32707;43.886;12.874;2022-08-21T00:13:16;100969.66;;;22.03;68.88
46954;BME280;32707;43.886;12.874;2022-08-21T00:15:42;100969.22;;;22.01;68.87
46954;BME280;32707;43.886;12.874;2022-08-21T00:18:09;100971.28;;;22.01;69.11
46954;BME280;32707;43.886;12.874;2022-08-21T00:20:36;100969.19;;;21.98;69.04
46954;BME280;32707;43.886;12.874;2022-08-21T00:23:02;100961.06;;;21.96;69.07
46954;BME280;32707;43.886;12.874;2022-08-21T00:25:28;100959.78;;;21.90;69.13
46954;BME280;32707;43.886;12.874;2022-08-21T00:27:54;100969.53;;;21.85;69.30
46954;BME280;32707;43.886;12.874;2022-08-21T00:30:22;100965.84;;;21.81;69.54
46954;BME280;32707;43.886;12.874;2022-08-21T00:32:48;100978.81;;;21.79;69.59
46954;BME280;32707;43.886;12.874;2022-08-21T00:35:16;100973.94;;;21.76;69.69
46954;BME280;32707;43.886;12.874;2022-08-21T00:37:43;100970.25;;;21.75;69.74
46954;BME280;32707;43.886;12.874;2022-08-21T00:40:13;100966.19;;;21.76;69.60
46954;BME280;32707;43.886;12.874;2022-08-21T00:42:39;100983.28;;;21.76;69.74
46954;BME280;32707;43.886;12.874;2022-08-21T00:45:05;100980.44;;;21.76;70.00
46954;BME280;32707;43.886;12.874;2022-08-21T00:47:31;100977.59;;;21.76;69.85
46954;BME280;32707;43.886;12.874;2022-08-21T00:49:56;100982.91;;;21.78;69.79
46954;BME280;32707;43.886;12.874;2022-08-21T00:52:25;100967.03;;;21.80;69.83
46954;BME280;32707;43.886;12.874;2022-08-21T00:54:52;100963.00;;;21.81;69.82
46954;BME280;32707;43.886;12.874;2022-08-21T00:57:22;100958.88;;;21.79;69.87
46954;BME280;32707;43.886;12.874;2022-08-21T00:59:51;100962.56;;;21.79;69.75
46954;BME280;32707;43.886;12.874;2022-08-21T01:02:19;100964.59;;;21.79;69.93
46954;BME280;32707;43.886;12.874;2022-08-21T01:04:45;100973.97;;;21.79;69.94
46954;BME280;32707;43.886;12.874;2022-08-21T01:07:12;100971.53;;;21.81;69.96
46954;BME280;32707;43.886;12.874;2022-08-21T01:09:41;100971.53;;;21.81;69.86
46954;BME280;32707;43.886;12.874;2022-08-21T01:12:07;100975.97;;;21.79;69.87
46954;BME280;32707;43.886;12.874;2022-08-21T01:14:33;100971.88;;;21.72;70.15
46954;BME280;32707;43.886;12.874;2022-08-21T01:17:01;100971.44;;;21.70;69.98
46954;BME280;32707;43.886;12.874;2022-08-21T01:19:29;100971.88;;;21.72;70.14
46954;BME280;32707;43.886;12.874;2022-08-21T01:21:55;100971.47;;;21.74;70.04
46954;BME280;32707;43.886;12.874;2022-08-21T01:24:21;100978.78;;;21.75;70.12
46954;BME280;32707;43.886;12.874;2022-08-21T01:26:47;100962.09;;;21.70;70.04
46954;BME280;32707;43.886;12.874;2022-08-21T01:29:23;100961.22;;;21.66;70.23
46954;BME280;32707;43.886;12.874;2022-08-21T01:31:51;100956.75;;;21.65;70.26
46954;BME280;32707;43.886;12.874;2022-08-21T01:34:17;100964.84;;;21.59;70.37
46954;BME280;32707;43.886;12.874;2022-08-21T01:36:44;100965.63;;;21.56;70.59
46954;BME280;32707;43.886;12.874;2022-08-21T01:39:10;100972.53;;;21.55;70.57
46954;BME280;32707;43.886;12.874;2022-08-21T01:41:36;100961.91;;;21.52;70.61
46954;BME280;32707;43.886;12.874;2022-08-21T01:44:01;100962.31;;;21.50;70.61
46954;BME280;32707;43.886;12.874;2022-08-21T01:46:27;100958.66;;;21.50;70.69
46954;BME280;32707;43.886;12.874;2022-08-21T01:48:52;100956.63;;;21.50;70.77
46954;BME280;32707;43.886;12.874;2022-08-21T01:51:18;100958.66;;;21.50;70.73
46954;BME280;32707;43.886;12.874;2022-08-21T01:53:43;100964.34;;;21.50;70.64
46954;BME280;32707;43.886;12.874;2022-08-21T01:56:12;100959.47;;;21.50;70.75
46954;BME280;32707;43.886;12.874;2022-08-21T01:58:42;100955.41;;;21.51;70.64
46954;BME280;32707;43.886;12.874;2022-08-21T02:01:09;100956.22;;;21.52;70.73
46954;BME280;32707;43.886;12.874;2022-08-21T02:03:34;100952.56;;;21.51;70.72
46954;BME280;32707;43.886;12.874;2022-08-21T02:06:00;100945.22;;;21.50;70.69
46954;BME280;32707;43.886;12.874;2022-08-21T02:08:27;100940.34;;;21.51;70.78
46954;BME280;32707;43.886;12.874;2022-08-21T02:10:53;100949.72;;;21.51;70.61
46954;BME280;32707;43.886;12.874;2022-08-21T02:13:19;100945.66;;;21.52;70.53
46954;BME280;32707;43.886;12.874;2022-08-21T02:15:44;100933.88;;;21.54;70.54
46954;BME280;32707;43.886;12.874;2022-08-21T02:18:10;100940.00;;;21.56;70.40
46954;BME280;32707;43.886;12.874;2022-08-21T02:20:39;100936.75;;;21.58;70.35
46954;BME280;32707;43.886;12.874;2022-08-21T02:23:06;100934.31;;;21.60;70.23
46954;BME280;32707;43.886;12.874;2022-08-21T02:25:32;100938.41;;;21.59;70.14
46954;BME280;32707;43.886;12.874;2022-08-21T02:27:59;100931.88;;;21.58;70.16
46954;BME280;32707;43.886;12.874;2022-08-21T02:30:28;100937.56;;;21.58;70.18
46954;BME280;32707;43.886;12.874;2022-08-21T02:32:54;100931.44;;;21.56;70.01
46954;BME280;32707;43.886;12.874;2022-08-21T02:35:20;100938.72;;;21.50;69.99
46954;BME280;32707;43.886;12.874;2022-08-21T02:37:47;100943.97;;;21.44;70.21
46954;BME280;32707;43.886;12.874;2022-08-21T02:40:14;100936.56;;;21.40;70.47
46954;BME280;32707;43.886;12.874;2022-08-21T02:42:40;100944.28;;;21.39;70.23
46954;BME280;32707;43.886;12.874;2022-08-21T02:45:07;100940.19;;;21.36;70.15
46954;BME280;32707;43.886;12.874;2022-08-21T02:47:36;100934.88;;;21.31;70.26
46954;BME280;32707;43.886;12.874;2022-08-21T02:50:02;100942.94;;;21.26;70.38
46954;BME280;32707;43.886;12.874;2022-08-21T02:52:28;100939.66;;;21.24;70.49
46954;BME280;32707;43.886;12.874;2022-08-21T02:54:54;100943.31;;;21.24;70.44
46954;BME280;32707;43.886;12.874;2022-08-21T02:57:19;100945.31;;;21.20;70.37
46954;BME280;32707;43.886;12.874;2022-08-21T02:59:45;100952.63;;;21.17;70.59
46954;BME280;32707;43.886;12.874;2022-08-21T03:02:12;100943.66;;;21.15;70.53
46954;BME280;32707;43.886;12.874;2022-08-21T03:04:37;100945.72;;;21.19;70.31
46954;BME280;32707;43.886;12.874;2022-08-21T03:07:03;100947.75;;;21.18;70.28
46954;BME280;32707;43.886;12.874;2022-08-21T03:09:29;100944.84;;;21.14;70.22
46954;BME280;32707;43.886;12.874;2022-08-21T03:11:54;100939.56;;;21.13;70.38
46954;BME280;32707;43.886;12.874;2022-08-21T03:14:19;100937.94;;;21.12;70.40
46954;BME280;32707;43.886;12.874;2022-08-21T03:16:45;100941.56;;;21.09;70.21
46954;BME280;32707;43.886;12.874;2022-08-21T03:19:11;100937.03;;;21.04;70.22
46954;BME280;32707;43.886;12.874;2022-08-21T03:21:38;100939.00;;;21.00;70.43
46954;BME280;32707;43.886;12.874;2022-08-21T03:24:03;100937.00;;;21.01;70.49
46954;BME280;32707;43.886;12.874;2022-08-21T03:26:30;100940.22;;;20.99;70.20
46954;BME280;32707;43.886;12.874;2022-08-21T03:28:55;100936.56;;;20.99;70.25
46954;BME280;32707;43.886;12.874;2022-08-21T03:31:23;100932.47;;;20.96;70.40
46954;BME280;32707;43.886;12.874;2022-08-21T03:33:48;100940.97;;;20.92;70.58
46954;BME280;32707;43.886;12.874;2022-08-21T03:36:15;100934.47;;;20.92;70.39
46954;BME280;32707;43.886;12.874;2022-08-21T03:38:41;100940.91;;;20.89;70.57
46954;BME280;32707;43.886;12.874;2022-08-21T03:41:07;100942.13;;;20.88;70.42
46954;BME280;32707;43.886;12.874;2022-08-21T03:43:33;100946.53;;;20.82;70.45
46954;BME280;32707;43.886;12.874;2022-08-21T03:46:01;100940.75;;;20.74;70.76
46954;BME280;32707;43.886;12.874;2022-08-21T03:48:28;100948.81;;;20.69;71.04
46954;BME280;32707;43.886;12.874;2022-08-21T03:50:54;100948.78;;;20.65;70.93
46954;BME280;32707;43.886;12.874;2022-08-21T03:53:20;100959.34;;;20.65;71.10
46954;BME280;32707;43.886;12.874;2022-08-21T03:55:48;100958.50;;;20.64;71.05
46954;BME280;32707;43.886;12.874;2022-08-21T03:58:16;100952.75;;;20.61;71.08
46954;BME280;32707;43.886;12.874;2022-08-21T04:00:41;100949.84;;;20.57;71.27
46954;BME280;32707;43.886;12.874;2022-08-21T04:03:07;100955.16;;;20.58;71.42
46954;BME280;32707;43.886;12.874;2022-08-21T04:05:32;100958.81;;;20.59;71.13
46954;BME280;32707;43.886;12.874;2022-08-21T04:08:02;100959.28;;;20.61;71.27
46954;BME280;32707;43.886;12.874;2022-08-21T04:10:30;100951.56;;;20.62;71.00
46954;BME280;32707;43.886;12.874;2022-08-21T04:12:56;100961.28;;;20.61;71.00
46954;BME280;32707;43.886;12.874;2022-08-21T04:15:23;100951.06;;;20.56;71.37
46954;BME280;32707;43.886;12.874;2022-08-21T04:17:52;100959.16;;;20.54;71.11
46954;BME280;32707;43.886;12.874;2022-08-21T04:20:18;100954.28;;;20.54;71.30
46954;BME280;32707;43.886;12.874;2022-08-21T04:22:45;100954.66;;;20.53;71.11
46954;BME280;32707;43.886;12.874;2022-08-21T04:25:12;100944.09;;;20.50;71.30
46954;BME280;32707;43.886;12.874;2022-08-21T04:27:38;100955.47;;;20.50;71.23
46954;BME280;32707;43.886;12.874;2022-08-21T04:30:05;100948.13;;;20.49;71.25
46954;BME280;32707;43.886;12.874;2022-08-21T04:32:31;100953.41;;;20.50;71.15
46954;BME280;32707;43.886;12.874;2022-08-21T04:35:04;100951.38;;;20.51;70.91
46954;BME280;32707;43.886;12.874;2022-08-21T04:37:30;100955.88;;;20.52;70.87
46954;BME280;32707;43.886;12.874;2022-08-21T04:39:56;100960.72;;;20.51;70.78
46954;BME280;32707;43.886;12.874;2022-08-21T04:42:24;100956.25;;;20.50;70.77
46954;BME280;32707;43.886;12.874;2022-08-21T04:44:49;100961.56;;;20.52;70.83
46954;BME280;32707;43.886;12.874;2022-08-21T04:47:15;100968.06;;;20.52;70.85
46954;BME280;32707;43.886;12.874;2022-08-21T04:49:42;100959.16;;;20.54;70.65
46954;BME280;32707;43.886;12.874;2022-08-21T04:52:07;100969.31;;;20.55;70.63
46954;BME280;32707;43.886;12.874;2022-08-21T04:54:33;100971.78;;;20.56;70.42
46954;BME280;32707;43.886;12.874;2022-08-21T04:57:02;100965.41;;;20.63;69.98
46954;BME280;32707;43.886;12.874;2022-08-21T04:59:36;100970.38;;;20.73;69.89
46954;BME280;32707;43.886;12.874;2022-08-21T05:02:05;100973.38;;;20.84;69.66
46954;BME280;32707;43.886;12.874;2022-08-21T05:04:33;100972.25;;;20.92;69.35
46954;BME280;32707;43.886;12.874;2022-08-21T05:07:02;100976.81;;;21.01;69.17
46954;BME280;32707;43.886;12.874;2022-08-21T05:09:29;100973.59;;;21.06;69.21
46954;BME280;32707;43.886;12.874;2022-08-21T05:11:55;100979.75;;;21.08;68.66
46954;BME280;32707;43.886;12.874;2022-08-21T05:14:21;100980.22;;;21.13;68.77
46954;BME280;32707;43.886;12.874;2022-08-21T05:16:47;100983.06;;;21.17;68.52
46954;BME280;32707;43.886;12.874;2022-08-21T05:19:12;100976.22;;;21.22;68.46
46954;BME280;32707;43.886;12.874;2022-08-21T05:21:41;100969.03;;;21.35;68.13
46954;BME280;32707;43.886;12.874;2022-08-21T05:24:07;100975.28;;;21.44;67.76
46954;BME280;32707;43.886;12.874;2022-08-21T05:26:33;100979.38;;;21.50;67.78
46954;BME280;32707;43.886;12.874;2022-08-21T05:28:59;100972.59;;;21.66;67.32
46954;BME280;32707;43.886;12.874;2022-08-21T05:31:24;100985.34;;;21.79;67.06
46954;BME280;32707;43.886;12.874;2022-08-21T05:33:50;100974.47;;;21.96;66.55
46954;BME280;32707;43.886;12.874;2022-08-21T05:36:17;100964.72;;;21.97;66.27
46954;BME280;32707;43.886;12.874;2022-08-21T05:38:43;100968.03;;;22.02;66.23
46954;BME280;32707;43.886;12.874;2022-08-21T05:41:09;100970.53;;;22.14;65.97
46954;BME280;32707;43.886;12.874;2022-08-21T05:43:34;100970.25;;;22.27;65.65
46954;BME280;32707;43.886;12.874;2022-08-21T05:46:06;100967.50;;;22.45;65.28
46954;BME280;32707;43.886;12.874;2022-08-21T05:48:32;100959.03;;;22.63;65.13
46954;BME280;32707;43.886;12.874;2022-08-21T05:51:08;100959.50;;;22.76;64.39
46954;BME280;32707;43.886;12.874;2022-08-21T05:53:35;100971.34;;;22.81;64.07
46954;BME280;32707;43.886;12.874;2022-08-21T05:56:01;100958.34;;;22.95;63.88
46954;BME280;32707;43.886;12.874;2022-08-21T05:58:30;100969.38;;;23.00;63.37
46954;BME280;32707;43.886;12.874;2022-08-21T06:00:56;100976.72;;;23.04;63.16
46954;BME280;32707;43.886;12.874;2022-08-21T06:03:25;100978.81;;;23.25;62.65
46954;BME280;32707;43.886;12.874;2022-08-21T06:05:52;100976.03;;;23.47;62.27
46954;BME280;32707;43.886;12.874;2022-08-21T06:08:18;100967.47;;;23.65;61.65
46954;BME280;32707;43.886;12.874;2022-08-21T06:10:45;100971.53;;;23.64;61.33
46954;BME280;32707;43.886;12.874;2022-08-21T06:13:13;100967.47;;;23.61;61.22
46954;BME280;32707;43.886;12.874;2022-08-21T06:15:39;100972.75;;;23.74;60.96
46954;BME280;32707;43.886;12.874;2022-08-21T06:18:05;100960.13;;;23.85;60.79
46954;BME280;32707;43.886;12.874;2022-08-21T06:20:30;100963.38;;;23.98;60.38
46954;BME280;32707;43.886;12.874;2022-08-21T06:22:57;100961.34;;;24.06;59.95
46954;BME280;32707;43.886;12.874;2022-08-21T06:25:23;100966.63;;;24.18;59.60
46954;BME280;32707;43.886;12.874;2022-08-21T06:27:49;100960.47;;;24.34;59.19
46954;BME280;32707;43.886;12.874;2022-08-21T06:30:15;100970.25;;;24.44;58.87
46954;BME280;32707;43.886;12.874;2022-08-21T06:32:41;100958.38;;;24.49;58.54
46954;BME280;32707;43.886;12.874;2022-08-21T06:35:06;100960.44;;;24.59;58.22
46954;BME280;32707;43.886;12.874;2022-08-21T06:37:32;100972.22;;;24.76;57.72
46954;BME280;32707;43.886;12.874;2022-08-21T06:39:58;100966.00;;;24.88;57.44
46954;BME280;32707;43.886;12.874;2022-08-21T06:42:23;100967.16;;;25.01;57.05
46954;BME280;32707;43.886;12.874;2022-08-21T06:44:49;100969.94;;;25.27;56.54
46954;BME280;32707;43.886;12.874;2022-08-21T06:47:14;100971.81;;;25.51;55.87
46954;BME280;32707;43.886;12.874;2022-08-21T06:49:40;100967.97;;;25.69;55.68
46954;BME280;32707;43.886;12.874;2022-08-21T06:52:12;100964.25;;;25.75;55.21
46954;BME280;32707;43.886;12.874;2022-08-21T06:54:38;100963.78;;;25.80;54.94
46954;BME280;32707;43.886;12.874;2022-08-21T06:57:04;100961.63;;;25.95;54.70
46954;BME280;32707;43.886;12.874;2022-08-21T06:59:30;100960.38;;;26.00;54.53
46954;BME280;32707;43.886;12.874;2022-08-21T07:01:55;100968.81;;;26.14;54.39
46954;BME280;32707;43.886;12.874;2022-08-21T07:04:21;100968.53;;;26.43;53.43
46954;BME280;32707;43.886;12.874;2022-08-21T07:06:46;100967.25;;;26.44;53.27
46954;BME280;32707;43.886;12.874;2022-08-21T07:09:12;100966.34;;;26.54;53.41
46954;BME280;32707;43.886;12.874;2022-08-21T07:11:37;100962.00;;;26.77;52.74
46954;BME280;32707;43.886;12.874;2022-08-21T07:14:03;100968.31;;;26.95;52.27
46954;BME280;32707;43.886;12.874;2022-08-21T07:16:29;100965.13;;;27.17;52.08
46954;BME280;32707;43.886;12.874;2022-08-21T07:18:54;100957.25;;;27.52;51.45
46954;BME280;32707;43.886;12.874;2022-08-21T07:21:20;100957.78;;;27.94;50.54
46954;BME280;32707;43.886;12.874;2022-08-21T07:23:49;100960.44;;;28.28;49.81
46954;BME280;32707;43.886;12.874;2022-08-21T07:26:17;100955.03;;;28.54;49.41
46954;BME280;32707;43.886;12.874;2022-08-21T07:28:43;100962.25;;;28.82;48.93
46954;BME280;32707;43.886;12.874;2022-08-21T07:31:10;100963.47;;;29.21;48.17
46954;BME280;32707;43.886;12.874;2022-08-21T07:33:39;100955.22;;;29.73;47.52
46954;BME280;32707;43.886;12.874;2022-08-21T07:36:05;100957.38;;;30.34;46.64
46954;BME280;32707;43.886;12.874;2022-08-21T07:38:30;100961.13;;;30.90;45.41
46954;BME280;32707;43.886;12.874;2022-08-21T07:40:57;100957.84;;;31.43;44.62
46954;BME280;32707;43.886;12.874;2022-08-21T07:43:25;100970.84;;;32.11;43.81
46954;BME280;32707;43.886;12.874;2022-08-21T07:45:51;100960.41;;;32.93;42.77
46954;BME280;32707;43.886;12.874;2022-08-21T07:48:18;100967.22;;;33.71;41.46
46954;BME280;32707;43.886;12.874;2022-08-21T07:50:43;100970.75;;;34.43;40.98
46954;BME280;32707;43.886;12.874;2022-08-21T07:53:09;100972.44;;;35.15;40.10
46954;BME280;32707;43.886;12.874;2022-08-21T07:55:35;100964.63;;;35.30;40.08
46954;BME280;32707;43.886;12.874;2022-08-21T07:58:00;100957.72;;;35.28;40.01
46954;BME280;32707;43.886;12.874;2022-08-21T08:00:27;100958.84;;;35.12;40.24
46954;BME280;32707;43.886;12.874;2022-08-21T08:02:54;100956.69;;;35.40;40.38
46954;BME280;32707;43.886;12.874;2022-08-21T08:05:26;100958.00;;;35.72;39.92
46954;BME280;32707;43.886;12.874;2022-08-21T08:07:51;100950.22;;;36.03;39.33
46954;BME280;32707;43.886;12.874;2022-08-21T08:10:18;100944.41;;;36.42;38.97
46954;BME280;32707;43.886;12.874;2022-08-21T08:12:44;100949.19;;;36.84;38.30
46954;BME280;32707;43.886;12.874;2022-08-21T08:15:15;100941.66;;;37.22;37.56
46954;BME280;32707;43.886;12.874;2022-08-21T08:17:41;100942.22;;;37.41;36.79
46954;BME280;32707;43.886;12.874;2022-08-21T08:20:08;100935.03;;;37.57;36.92
46954;BME280;32707;43.886;12.874;2022-08-21T08:22:36;100931.44;;;37.82;35.91
46954;BME280;32707;43.886;12.874;2022-08-21T08:25:03;100940.88;;;37.92;36.05
46954;BME280;32707;43.886;12.874;2022-08-21T08:27:29;100938.97;;;38.30;35.55
46954;BME280;32707;43.886;12.874;2022-08-21T08:29:54;100939.09;;;38.62;34.52
46954;BME280;32707;43.886;12.874;2022-08-21T08:32:20;100930.53;;;38.84;34.67
46954;BME280;32707;43.886;12.874;2022-08-21T08:34:48;100925.56;;;38.96;34.05
46954;BME280;32707;43.886;12.874;2022-08-21T08:37:14;100925.03;;;39.24;34.04
46954;BME280;32707;43.886;12.874;2022-08-21T08:39:40;100928.72;;;39.56;33.29
46954;BME280;32707;43.886;12.874;2022-08-21T08:42:07;100928.09;;;39.84;32.86
46954;BME280;32707;43.886;12.874;2022-08-21T08:44:36;100916.25;;;40.16;32.32
46954;BME280;32707;43.886;12.874;2022-08-21T08:47:03;100922.69;;;40.31;31.74
46954;BME280;32707;43.886;12.874;2022-08-21T08:50:02;100918.25;;;40.47;31.32
46954;BME280;32707;43.886;12.874;2022-08-21T08:52:33;100912.72;;;40.83;31.02
46954;BME280;32707;43.886;12.874;2022-08-21T08:55:02;100931.38;;;41.19;30.41
46954;BME280;32707;43.886;12.874;2022-08-21T08:57:29;100926.56;;;41.56;29.81
46954;BME280;32707;43.886;12.874;2022-08-21T08:59:58;100914.25;;;41.57;29.81
46954;BME280;32707;43.886;12.874;2022-08-21T09:02:25;100927.34;;;41.56;29.48
46954;BME280;32707;43.886;12.874;2022-08-21T09:04:53;100926.28;;;41.48;30.10
46954;BME280;32707;43.886;12.874;2022-08-21T09:13:11;100908.69;;;41.31;30.21
46954;BME280;32707;43.886;12.874;2022-08-21T09:23:55;100908.69;;;40.80;30.64
46954;BME280;32707;43.886;12.874;2022-08-21T09:26:25;100898.56;;;40.76;30.89
46954;BME280;32707;43.886;12.874;2022-08-21T09:28:54;100908.19;;;40.99;30.35
46954;BME280;32707;43.886;12.874;2022-08-21T09:31:27;100904.97;;;40.97;30.32
46954;BME280;32707;43.886;12.874;2022-08-21T09:34:02;100913.50;;;41.00;30.04
46954;BME280;32707;43.886;12.874;2022-08-21T09:36:43;100908.72;;;41.26;29.59
46954;BME280;32707;43.886;12.874;2022-08-21T09:39:11;100908.16;;;41.38;29.52
46954;BME280;32707;43.886;12.874;2022-08-21T09:41:38;100906.50;;;41.60;29.19
46954;BME280;32707;43.886;12.874;2022-08-21T09:44:05;100907.59;;;41.63;28.92
46954;BME280;32707;43.886;12.874;2022-08-21T09:46:31;100904.34;;;41.78;28.85
46954;BME280;32707;43.886;12.874;2022-08-21T09:48:59;100904.63;;;41.74;28.90
46954;BME280;32707;43.886;12.874;2022-08-21T09:51:32;100905.38;;;41.80;28.58
46954;BME280;32707;43.886;12.874;2022-08-21T09:56:53;100901.16;;;41.70;28.44
46954;BME280;32707;43.886;12.874;2022-08-21T09:59:38;100903.00;;;41.79;28.40
46954;BME280;32707;43.886;12.874;2022-08-21T10:02:23;100894.47;;;41.75;28.30
46954;BME280;32707;43.886;12.874;2022-08-21T10:05:00;100896.09;;;41.53;28.98
46954;BME280;32707;43.886;12.874;2022-08-21T10:07:28;100882.25;;;41.48;28.89
46954;BME280;32707;43.886;12.874;2022-08-21T10:10:07;100885.19;;;41.48;28.88
46954;BME280;32707;43.886;12.874;2022-08-21T10:12:57;100890.53;;;41.44;28.48
46954;BME280;32707;43.886;12.874;2022-08-21T10:15:34;100879.59;;;41.33;28.56
46954;BME280;32707;43.886;12.874;2022-08-21T10:21:01;100879.59;;;41.50;28.00
46954;BME280;32707;43.886;12.874;2022-08-21T10:24:36;100885.97;;;41.66;27.71
46954;BME280;32707;43.886;12.874;2022-08-21T10:30:06;100870.34;;;41.93;27.43
46954;BME280;32707;43.886;12.874;2022-08-21T10:35:26;100852.75;;;42.77;26.32
46954;BME280;32707;43.886;12.874;2022-08-21T10:43:50;100862.22;;;42.94;25.11
46954;BME280;32707;43.886;12.874;2022-08-21T10:51:28;100860.16;;;43.14;24.80
46954;BME280;32707;43.886;12.874;2022-08-21T10:54:13;100855.88;;;43.15;24.80
46954;BME280;32707;43.886;12.874;2022-08-21T10:56:46;100855.03;;;43.20;24.71
46954;BME280;32707;43.886;12.874;2022-08-21T10:59:33;100850.34;;;43.55;24.19
46954;BME280;32707;43.886;12.874;2022-08-21T11:02:17;100838.41;;;43.72;23.89
46954;BME280;32707;43.886;12.874;2022-08-21T11:05:05;100846.72;;;43.67;23.36
46954;BME280;32707;43.886;12.874;2022-08-21T11:12:44;100837.16;;;43.61;23.21
46954;BME280;32707;43.886;12.874;2022-08-21T11:15:58;100841.50;;;43.36;23.68
46954;BME280;32707;43.886;12.874;2022-08-21T11:21:37;100842.88;;;43.29;23.40
46954;BME280;32707;43.886;12.874;2022-08-21T11:29:39;100831.13;;;43.54;23.31
46954;BME280;32707;43.886;12.874;2022-08-21T11:43:55;100827.78;;;43.63;22.49
46954;BME280;32707;43.886;12.874;2022-08-21T11:55:02;100837.38;;;43.44;22.56
46954;BME280;32707;43.886;12.874;2022-08-21T11:58:22;100839.09;;;43.34;22.62
46954;BME280;32707;43.886;12.874;2022-08-21T12:00:54;100833.31;;;43.23;22.71
46954;BME280;32707;43.886;12.874;2022-08-21T12:03:31;100843.31;;;43.14;22.91
46954;BME280;32707;43.886;12.874;2022-08-21T12:06:02;100837.59;;;42.97;22.71
46954;BME280;32707;43.886;12.874;2022-08-21T12:08:38;100838.88;;;43.02;22.81
46954;BME280;32707;43.886;12.874;2022-08-21T12:16:36;100827.66;;;43.00;22.94
46954;BME280;32707;43.886;12.874;2022-08-21T12:19:08;100821.78;;;43.00;22.61
46954;BME280;32707;43.886;12.874;2022-08-21T12:21:48;100814.78;;;43.03;22.57
46954;BME280;32707;43.886;12.874;2022-08-21T12:26:54;100812.53;;;42.85;22.93
46954;BME280;32707;43.886;12.874;2022-08-21T12:29:26;100813.06;;;42.89;22.29
46954;BME280;32707;43.886;12.874;2022-08-21T12:34:24;100806.72;;;42.79;22.62
46954;BME280;32707;43.886;12.874;2022-08-21T12:37:00;100808.78;;;42.90;22.05
46954;BME280;32707;43.886;12.874;2022-08-21T12:39:29;100800.19;;;43.17;21.72
46954;BME280;32707;43.886;12.874;2022-08-21T12:42:15;100788.56;;;43.30;21.43
46954;BME280;32707;43.886;12.874;2022-08-21T12:44:55;100788.28;;;43.53;21.27
46954;BME280;32707;43.886;12.874;2022-08-21T12:47:29;100789.31;;;43.36;21.12
46954;BME280;32707;43.886;12.874;2022-08-21T12:50:06;100797.75;;;43.21;20.87
46954;BME280;32707;43.886;12.874;2022-08-21T12:52:38;100782.66;;;43.05;20.87
46954;BME280;32707;43.886;12.874;2022-08-21T12:55:06;100782.78;;;42.94;20.73
46954;BME280;32707;43.886;12.874;2022-08-21T12:57:36;100774.03;;;42.58;21.21
46954;BME280;32707;43.886;12.874;2022-08-21T13:00:05;100779.13;;;42.22;21.07
46954;BME280;32707;43.886;12.874;2022-08-21T13:02:48;100769.28;;;41.61;21.60
46954;BME280;32707;43.886;12.874;2022-08-21T13:05:19;100769.53;;;40.65;22.53
46954;BME280;32707;43.886;12.874;2022-08-21T13:07:49;100771.59;;;39.96;23.35
46954;BME280;32707;43.886;12.874;2022-08-21T13:10:28;100767.59;;;39.34;23.71
46954;BME280;32707;43.886;12.874;2022-08-21T13:12:57;100765.56;;;38.65;24.66
46954;BME280;32707;43.886;12.874;2022-08-21T13:15:28;100760.03;;;38.09;24.56
46954;BME280;32707;43.886;12.874;2022-08-21T13:17:54;100778.41;;;37.68;25.43
46954;BME280;32707;43.886;12.874;2022-08-21T13:20:21;100778.41;;;37.48;25.39
46954;BME280;32707;43.886;12.874;2022-08-21T13:22:47;100768.19;;;37.17;25.55
46954;BME280;32707;43.886;12.874;2022-08-21T13:25:16;100763.72;;;36.86;25.68
46954;BME280;32707;43.886;12.874;2022-08-21T13:27:43;100754.31;;;36.76;25.80
46954;BME280;32707;43.886;12.874;2022-08-21T13:30:20;100746.06;;;36.60;25.86
46954;BME280;32707;43.886;12.874;2022-08-21T13:32:49;100749.34;;;36.47;25.94
46954;BME280;32707;43.886;12.874;2022-08-21T13:35:23;100742.28;;;36.39;26.17
46954;BME280;32707;43.886;12.874;2022-08-21T13:37:51;100746.63;;;36.29;26.08
46954;BME280;32707;43.886;12.874;2022-08-21T13:40:24;100743.13;;;36.25;26.32
46954;BME280;32707;43.886;12.874;2022-08-21T13:42:50;100756.94;;;36.15;26.31
46954;BME280;32707;43.886;12.874;2022-08-21T13:45:22;100749.81;;;35.86;26.59
46954;BME280;32707;43.886;12.874;2022-08-21T13:47:49;100749.81;;;35.62;27.24
46954;BME280;32707;43.886;12.874;2022-08-21T13:50:18;100744.09;;;35.53;27.17
46954;BME280;32707;43.886;12.874;2022-08-21T13:53:23;100746.88;;;35.47;27.08
46954;BME280;32707;43.886;12.874;2022-08-21T13:55:52;100761.50;;;35.38;27.38
46954;BME280;32707;43.886;12.874;2022-08-21T13:58:48;100752.41;;;35.45;27.29
46954;BME280;32707;43.886;12.874;2022-08-21T14:01:22;100744.66;;;35.42;27.35
46954;BME280;32707;43.886;12.874;2022-08-21T14:03:53;100742.81;;;35.30;26.89
46954;BME280;32707;43.886;12.874;2022-08-21T14:06:24;100745.94;;;35.17;27.04
46954;BME280;32707;43.886;12.874;2022-08-21T14:09:07;100733.09;;;35.09;27.44
46954;BME280;32707;43.886;12.874;2022-08-21T14:11:37;100731.47;;;35.08;27.14